BAW45V EGLL-EDDK
Flight info
| Callsign | BAW45V |
|---|---|
| Flight time | 1h 7m |
| Altitude | 31000 |
| Route | BPK Q295 BRAIN M197 REDFA DCT TACHA L620 SONEB/N0386F230 Z841 GETNI/N0384F220 T858 KOPAG KOPAG1C |
| Aircraft | A320/M-SDE3FGHIRWY/LB1 |
Departure
| Time | 2026-05-06 18:14 |
|---|---|
| Airport | London Heathrow Airport (EGLL) |
Arrival
| Time | 2026-05-06 19:21 |
|---|---|
| Airport | Cologne Bonn Airport (EDDK) |
| Time | Latitude | Longitude | Altitude | Speed | Heading |
|---|---|---|---|---|---|
| 2026-05-06 17:07 | 51.47361 | -0.48593 | 88 ft | 0 kts | 271° |
| 2026-05-06 18:04 | 51.47361 | -0.48577 | 89 ft | 4 kts | 269° |
| 2026-05-06 18:04 | 51.47362 | -0.48534 | 88 ft | 4 kts | 259° |
| 2026-05-06 18:04 | 51.47370 | -0.48494 | 88 ft | 4 kts | 231° |
| 2026-05-06 18:04 | 51.47385 | -0.48477 | 88 ft | 1 kts | 180° |
| 2026-05-06 18:09 | 51.47361 | -0.48477 | 88 ft | 7 kts | 180° |
| 2026-05-06 18:09 | 51.47304 | -0.48476 | 85 ft | 10 kts | 179° |
| 2026-05-06 18:09 | 51.47219 | -0.48476 | 85 ft | 14 kts | 181° |
| 2026-05-06 18:09 | 51.47106 | -0.48475 | 85 ft | 18 kts | 179° |
| 2026-05-06 18:10 | 51.46966 | -0.48473 | 85 ft | 21 kts | 179° |
| 2026-05-06 18:10 | 51.46820 | -0.48471 | 87 ft | 21 kts | 180° |
| 2026-05-06 18:10 | 51.46688 | -0.48468 | 86 ft | 17 kts | 179° |
| 2026-05-06 18:10 | 51.46619 | -0.48468 | 89 ft | 0 kts | 179° |
| 2026-05-06 18:11 | 51.46608 | -0.48467 | 89 ft | 4 kts | 179° |
| 2026-05-06 18:11 | 51.46580 | -0.48467 | 89 ft | 8 kts | 179° |
| 2026-05-06 18:11 | 51.46488 | -0.48460 | 91 ft | 7 kts | 156° |
| 2026-05-06 18:11 | 51.46479 | -0.48383 | 89 ft | 7 kts | 88° |
| 2026-05-06 18:12 | 51.46480 | -0.48373 | 88 ft | 0 kts | 88° |
| 2026-05-06 18:13 | 51.46482 | -0.48178 | 86 ft | 48 kts | 89° |
| 2026-05-06 18:14 | 51.46483 | -0.47296 | 83 ft | 108 kts | 90° |
| 2026-05-06 18:14 | 51.46488 | -0.45829 | 83 ft | 153 kts | 90° |
| 2026-05-06 18:14 | 51.46506 | -0.43951 | 242 ft | 178 kts | 85° |
| 2026-05-06 18:14 | 51.46560 | -0.41950 | 853 ft | 182 kts | 76° |
| 2026-05-06 18:15 | 51.47122 | -0.40176 | 1469 ft | 180 kts | 47° |
| 2026-05-06 18:15 | 51.47971 | -0.38582 | 1849 ft | 195 kts | 48° |
| 2026-05-06 18:15 | 51.48909 | -0.36837 | 2139 ft | 219 kts | 47° |
| 2026-05-06 18:15 | 51.49947 | -0.34878 | 2550 ft | 241 kts | 48° |
| 2026-05-06 18:16 | 51.51048 | -0.32773 | 3288 ft | 250 kts | 48° |
| 2026-05-06 18:16 | 51.52121 | -0.30530 | 4107 ft | 258 kts | 61° |
| 2026-05-06 18:16 | 51.52785 | -0.27821 | 4987 ft | 264 kts | 69° |
| 2026-05-06 18:16 | 51.53390 | -0.25006 | 5717 ft | 270 kts | 68° |
| 2026-05-06 18:17 | 51.54282 | -0.22373 | 5950 ft | 269 kts | 48° |
| 2026-05-06 18:17 | 51.55151 | -0.20978 | 5996 ft | 266 kts | 36° |
| 2026-05-06 18:17 | 51.56761 | -0.19597 | 6005 ft | 262 kts | 19° |
| 2026-05-06 18:17 | 51.58461 | -0.18520 | 6055 ft | 264 kts | 22° |
| 2026-05-06 18:18 | 51.60195 | -0.17562 | 6054 ft | 263 kts | 16° |
| 2026-05-06 18:18 | 51.61947 | -0.16709 | 6129 ft | 264 kts | 16° |
| 2026-05-06 18:18 | 51.63723 | -0.15864 | 6900 ft | 266 kts | 15° |
| 2026-05-06 18:18 | 51.65512 | -0.15026 | 7728 ft | 269 kts | 14° |
| 2026-05-06 18:19 | 51.67319 | -0.14191 | 8531 ft | 272 kts | 14° |
| 2026-05-06 18:19 | 51.69158 | -0.13345 | 9292 ft | 277 kts | 14° |
| 2026-05-06 18:19 | 51.71028 | -0.12487 | 10043 ft | 281 kts | 14° |
| 2026-05-06 18:19 | 51.72901 | -0.11340 | 10419 ft | 301 kts | 32° |
| 2026-05-06 18:20 | 51.74377 | -0.08787 | 10572 ft | 328 kts | 59° |
| 2026-05-06 18:20 | 51.75245 | -0.05294 | 10965 ft | 343 kts | 73° |
| 2026-05-06 18:20 | 51.75651 | -0.01465 | 11579 ft | 349 kts | 83° |
| 2026-05-06 18:20 | 51.75953 | 0.02443 | 12188 ft | 353 kts | 81° |
| 2026-05-06 18:21 | 51.76028 | 0.03326 | 12332 ft | 354 kts | 81° |
| 2026-05-06 18:21 | 51.76204 | 0.05076 | 12617 ft | 355 kts | 78° |
| 2026-05-06 18:21 | 51.76599 | 0.09037 | 13254 ft | 360 kts | 79° |
| 2026-05-06 18:21 | 51.76966 | 0.13056 | 13910 ft | 363 kts | 80° |
| 2026-05-06 18:22 | 51.77310 | 0.17116 | 14486 ft | 367 kts | 81° |
| 2026-05-06 18:22 | 51.77642 | 0.21217 | 15057 ft | 370 kts | 81° |
| 2026-05-06 18:22 | 51.77971 | 0.25357 | 15628 ft | 373 kts | 81° |
| 2026-05-06 18:22 | 51.78303 | 0.29539 | 16175 ft | 377 kts | 81° |
| 2026-05-06 18:23 | 51.78639 | 0.33754 | 16742 ft | 380 kts | 82° |
| 2026-05-06 18:23 | 51.78975 | 0.37954 | 17301 ft | 383 kts | 81° |
| 2026-05-06 18:23 | 51.79315 | 0.42249 | 17868 ft | 387 kts | 82° |
| 2026-05-06 18:23 | 51.79656 | 0.46578 | 18430 ft | 390 kts | 82° |
| 2026-05-06 18:24 | 51.80000 | 0.50950 | 18950 ft | 393 kts | 82° |
| 2026-05-06 18:24 | 51.80344 | 0.55354 | 19482 ft | 396 kts | 82° |
| 2026-05-06 18:24 | 51.80690 | 0.59790 | 20008 ft | 400 kts | 82° |
| 2026-05-06 18:24 | 51.81046 | 0.64263 | 20535 ft | 403 kts | 80° |
| 2026-05-06 18:25 | 51.81652 | 0.68703 | 21030 ft | 406 kts | 75° |
| 2026-05-06 18:25 | 51.82337 | 0.73151 | 21530 ft | 409 kts | 75° |
| 2026-05-06 18:25 | 51.83027 | 0.77640 | 22012 ft | 413 kts | 75° |
| 2026-05-06 18:25 | 51.83724 | 0.82162 | 22484 ft | 416 kts | 75° |
| 2026-05-06 18:26 | 51.84481 | 0.86700 | 22956 ft | 419 kts | 73° |
| 2026-05-06 18:26 | 51.85304 | 0.91243 | 23410 ft | 423 kts | 72° |
| 2026-05-06 18:26 | 51.86163 | 0.95793 | 23811 ft | 426 kts | 72° |
| 2026-05-06 18:26 | 51.87039 | 1.00386 | 24164 ft | 429 kts | 72° |
| 2026-05-06 18:27 | 51.87910 | 1.05009 | 24544 ft | 431 kts | 73° |
| 2026-05-06 18:27 | 51.88772 | 1.09675 | 24924 ft | 434 kts | 73° |
| 2026-05-06 18:27 | 51.89626 | 1.14366 | 25298 ft | 436 kts | 73° |
| 2026-05-06 18:27 | 51.90474 | 1.19091 | 25668 ft | 438 kts | 73° |
| 2026-05-06 18:28 | 51.91319 | 1.23840 | 26031 ft | 440 kts | 73° |
| 2026-05-06 18:28 | 51.92166 | 1.28609 | 26384 ft | 442 kts | 73° |
| 2026-05-06 18:28 | 51.93017 | 1.33407 | 26739 ft | 444 kts | 73° |
| 2026-05-06 18:28 | 51.93868 | 1.38227 | 27090 ft | 446 kts | 73° |
| 2026-05-06 18:29 | 51.94723 | 1.43077 | 27441 ft | 448 kts | 73° |
| 2026-05-06 18:29 | 51.95570 | 1.47871 | 27773 ft | 450 kts | 73° |
| 2026-05-06 18:29 | 51.96444 | 1.52824 | 28137 ft | 451 kts | 73° |
| 2026-05-06 18:29 | 51.97297 | 1.57659 | 28454 ft | 454 kts | 73° |
| 2026-05-06 18:30 | 51.98162 | 1.62587 | 28801 ft | 456 kts | 73° |
| 2026-05-06 18:30 | 51.99029 | 1.67548 | 29118 ft | 458 kts | 73° |
| 2026-05-06 18:30 | 51.99869 | 1.72516 | 29579 ft | 456 kts | 75° |
| 2026-05-06 18:30 | 52.00663 | 1.77499 | 30044 ft | 455 kts | 75° |
| 2026-05-06 18:31 | 52.01425 | 1.82489 | 30460 ft | 454 kts | 76° |
| 2026-05-06 18:31 | 52.02174 | 1.87462 | 30843 ft | 454 kts | 76° |
| 2026-05-06 18:31 | 52.02924 | 1.92432 | 30964 ft | 453 kts | 76° |
| 2026-05-06 18:31 | 52.03678 | 1.97389 | 30985 ft | 452 kts | 76° |
| 2026-05-06 18:32 | 52.05189 | 2.07284 | 30986 ft | 451 kts | 76° |
| 2026-05-06 18:32 | 52.06698 | 2.17165 | 30981 ft | 451 kts | 76° |
| 2026-05-06 18:33 | 52.08208 | 2.27071 | 30982 ft | 451 kts | 76° |
| 2026-05-06 18:33 | 52.09702 | 2.36959 | 30975 ft | 450 kts | 76° |
| 2026-05-06 18:34 | 52.11182 | 2.46853 | 30971 ft | 450 kts | 76° |
| 2026-05-06 18:34 | 52.12824 | 2.56707 | 30963 ft | 451 kts | 72° |
| 2026-05-06 18:35 | 52.14285 | 2.66607 | 30967 ft | 451 kts | 89° |
| 2026-05-06 18:35 | 52.14204 | 2.76830 | 30962 ft | 452 kts | 91° |
| 2026-05-06 18:36 | 52.14056 | 2.87062 | 30963 ft | 452 kts | 92° |
| 2026-05-06 18:36 | 52.13900 | 2.97314 | 30959 ft | 453 kts | 92° |
| 2026-05-06 18:37 | 52.13745 | 3.07556 | 30962 ft | 453 kts | 92° |
| 2026-05-06 18:37 | 52.13590 | 3.17811 | 30956 ft | 453 kts | 92° |
| 2026-05-06 18:38 | 52.13421 | 3.28072 | 30954 ft | 453 kts | 92° |
| 2026-05-06 18:38 | 52.13334 | 3.33197 | 30828 ft | 451 kts | 92° |
| 2026-05-06 18:38 | 52.13249 | 3.38232 | 30664 ft | 439 kts | 92° |
| 2026-05-06 18:39 | 52.13163 | 3.43133 | 30502 ft | 428 kts | 93° |
| 2026-05-06 18:39 | 52.13073 | 3.47951 | 30083 ft | 424 kts | 94° |
| 2026-05-06 18:39 | 52.12982 | 3.52749 | 29469 ft | 424 kts | 93° |
| 2026-05-06 18:40 | 52.12786 | 3.62339 | 28118 ft | 426 kts | 93° |
| 2026-05-06 18:40 | 52.12684 | 3.67168 | 27436 ft | 427 kts | 93° |
| 2026-05-06 18:40 | 52.12586 | 3.71998 | 26776 ft | 428 kts | 93° |
| 2026-05-06 18:40 | 52.12489 | 3.76800 | 26160 ft | 429 kts | 92° |
| 2026-05-06 18:41 | 52.12389 | 3.81726 | 25941 ft | 430 kts | 93° |
| 2026-05-06 18:41 | 52.12286 | 3.86599 | 25954 ft | 433 kts | 94° |
| 2026-05-06 18:41 | 52.12180 | 3.91446 | 25951 ft | 433 kts | 93° |
| 2026-05-06 18:41 | 52.12071 | 3.96332 | 25944 ft | 431 kts | 93° |
| 2026-05-06 18:42 | 52.11961 | 4.01191 | 25947 ft | 429 kts | 93° |
| 2026-05-06 18:42 | 52.11849 | 4.06033 | 25947 ft | 428 kts | 93° |
| 2026-05-06 18:42 | 52.11735 | 4.10875 | 25948 ft | 428 kts | 93° |
| 2026-05-06 18:42 | 52.11618 | 4.15709 | 25942 ft | 428 kts | 93° |
| 2026-05-06 18:43 | 52.11497 | 4.20542 | 25943 ft | 428 kts | 93° |
| 2026-05-06 18:43 | 52.11377 | 4.25371 | 25942 ft | 428 kts | 93° |
| 2026-05-06 18:43 | 52.11260 | 4.30204 | 25942 ft | 427 kts | 93° |
| 2026-05-06 18:43 | 52.11138 | 4.35043 | 25937 ft | 427 kts | 93° |
| 2026-05-06 18:44 | 52.11011 | 4.39871 | 25937 ft | 427 kts | 94° |
| 2026-05-06 18:44 | 52.10881 | 4.44696 | 25936 ft | 427 kts | 94° |
| 2026-05-06 18:44 | 52.10749 | 4.49524 | 25937 ft | 427 kts | 94° |
| 2026-05-06 18:44 | 52.10615 | 4.54357 | 25931 ft | 427 kts | 94° |
| 2026-05-06 18:45 | 52.10480 | 4.59186 | 25932 ft | 427 kts | 94° |
| 2026-05-06 18:45 | 52.10342 | 4.64025 | 25932 ft | 427 kts | 94° |
| 2026-05-06 18:45 | 52.10205 | 4.68851 | 25940 ft | 427 kts | 94° |
| 2026-05-06 18:45 | 52.10111 | 4.72115 | 25940 ft | 427 kts | 94° |
| 2026-05-06 18:46 | 52.09921 | 4.78510 | 25940 ft | 427 kts | 94° |
| 2026-05-06 18:46 | 52.09772 | 4.83318 | 25940 ft | 427 kts | 94° |
| 2026-05-06 18:46 | 52.09621 | 4.88174 | 25941 ft | 427 kts | 94° |
| 2026-05-06 18:46 | 52.09472 | 4.92939 | 25935 ft | 427 kts | 94° |
| 2026-05-06 18:47 | 52.09320 | 4.97773 | 25940 ft | 427 kts | 94° |
| 2026-05-06 18:47 | 52.09167 | 5.02593 | 25942 ft | 427 kts | 94° |
| 2026-05-06 18:47 | 52.09013 | 5.07415 | 25943 ft | 427 kts | 94° |
| 2026-05-06 18:47 | 52.08861 | 5.12224 | 25941 ft | 426 kts | 94° |
| 2026-05-06 18:48 | 52.08706 | 5.17033 | 25941 ft | 426 kts | 94° |
| 2026-05-06 18:48 | 52.08549 | 5.21793 | 25940 ft | 426 kts | 94° |
| 2026-05-06 18:48 | 52.08386 | 5.26601 | 25938 ft | 426 kts | 94° |
| 2026-05-06 18:48 | 52.08220 | 5.31412 | 25935 ft | 426 kts | 94° |
| 2026-05-06 18:49 | 52.08056 | 5.36069 | 25938 ft | 426 kts | 94° |
| 2026-05-06 18:49 | 52.07894 | 5.40691 | 25932 ft | 426 kts | 94° |
| 2026-05-06 18:49 | 52.07726 | 5.45492 | 25936 ft | 426 kts | 94° |
| 2026-05-06 18:49 | 52.07556 | 5.50295 | 25930 ft | 425 kts | 94° |
| 2026-05-06 18:50 | 52.07386 | 5.55091 | 25680 ft | 425 kts | 94° |
| 2026-05-06 18:50 | 52.07212 | 5.59899 | 25429 ft | 425 kts | 94° |
| 2026-05-06 18:50 | 52.07034 | 5.64693 | 25176 ft | 426 kts | 94° |
| 2026-05-06 18:50 | 52.06851 | 5.69508 | 24930 ft | 426 kts | 94° |
| 2026-05-06 18:51 | 52.06668 | 5.74323 | 24683 ft | 427 kts | 94° |
| 2026-05-06 18:51 | 52.06485 | 5.79144 | 24442 ft | 428 kts | 94° |
| 2026-05-06 18:51 | 52.06300 | 5.83972 | 24203 ft | 429 kts | 94° |
| 2026-05-06 18:51 | 52.05831 | 5.88743 | 23964 ft | 427 kts | 108° |
| 2026-05-06 18:52 | 52.04597 | 5.93110 | 23724 ft | 426 kts | 125° |
| 2026-05-06 18:52 | 52.02672 | 5.96733 | 23500 ft | 421 kts | 141° |
| 2026-05-06 18:52 | 52.00311 | 5.99389 | 23226 ft | 408 kts | 150° |
| 2026-05-06 18:52 | 51.97922 | 6.01769 | 22953 ft | 399 kts | 150° |
| 2026-05-06 18:53 | 51.95573 | 6.04090 | 22676 ft | 392 kts | 150° |
| 2026-05-06 18:53 | 51.93294 | 6.06331 | 22400 ft | 386 kts | 150° |
| 2026-05-06 18:53 | 51.90979 | 6.08598 | 22126 ft | 382 kts | 150° |
| 2026-05-06 18:53 | 51.88732 | 6.10791 | 21854 ft | 381 kts | 150° |
| 2026-05-06 18:54 | 51.86472 | 6.13001 | 21589 ft | 379 kts | 150° |
| 2026-05-06 18:54 | 51.84220 | 6.15208 | 21325 ft | 377 kts | 150° |
| 2026-05-06 18:54 | 51.81981 | 6.17398 | 21048 ft | 376 kts | 150° |
| 2026-05-06 18:54 | 51.79751 | 6.19576 | 20662 ft | 373 kts | 150° |
| 2026-05-06 18:55 | 51.77535 | 6.21746 | 20283 ft | 371 kts | 150° |
| 2026-05-06 18:55 | 51.75332 | 6.23897 | 19910 ft | 369 kts | 150° |
| 2026-05-06 18:55 | 51.73139 | 6.26029 | 19532 ft | 367 kts | 150° |
| 2026-05-06 18:55 | 51.70952 | 6.28158 | 19164 ft | 366 kts | 150° |
| 2026-05-06 18:56 | 51.68777 | 6.30273 | 18801 ft | 364 kts | 150° |
| 2026-05-06 18:56 | 51.66616 | 6.32373 | 18439 ft | 361 kts | 150° |
| 2026-05-06 18:56 | 51.64471 | 6.34457 | 18072 ft | 359 kts | 150° |
| 2026-05-06 18:56 | 51.62337 | 6.36525 | 17662 ft | 357 kts | 150° |
| 2026-05-06 18:57 | 51.60212 | 6.38579 | 17248 ft | 355 kts | 150° |
| 2026-05-06 18:57 | 51.58097 | 6.40620 | 16858 ft | 354 kts | 150° |
| 2026-05-06 18:57 | 51.55990 | 6.42653 | 16465 ft | 352 kts | 150° |
| 2026-05-06 18:57 | 51.53895 | 6.44676 | 16078 ft | 351 kts | 150° |
| 2026-05-06 18:58 | 51.52510 | 6.46016 | 15825 ft | 350 kts | 150° |
| 2026-05-06 18:58 | 51.49754 | 6.48674 | 15325 ft | 348 kts | 150° |
| 2026-05-06 18:58 | 51.47679 | 6.50667 | 14955 ft | 347 kts | 149° |
| 2026-05-06 18:58 | 51.45614 | 6.52650 | 14582 ft | 345 kts | 149° |
| 2026-05-06 18:59 | 51.43552 | 6.54632 | 14210 ft | 345 kts | 149° |
| 2026-05-06 18:59 | 51.42161 | 6.55968 | 13966 ft | 344 kts | 149° |
| 2026-05-06 18:59 | 51.40118 | 6.57928 | 13594 ft | 342 kts | 149° |
| 2026-05-06 18:59 | 51.38077 | 6.59874 | 13186 ft | 341 kts | 149° |
| 2026-05-06 19:00 | 51.36042 | 6.61808 | 12787 ft | 340 kts | 149° |
| 2026-05-06 19:00 | 51.34013 | 6.63741 | 12338 ft | 338 kts | 149° |
| 2026-05-06 19:00 | 51.32020 | 6.65636 | 11895 ft | 337 kts | 149° |
| 2026-05-06 19:00 | 51.30008 | 6.67550 | 11413 ft | 337 kts | 148° |
| 2026-05-06 19:01 | 51.27963 | 6.69496 | 10912 ft | 338 kts | 147° |
| 2026-05-06 19:01 | 51.25967 | 6.71396 | 10426 ft | 339 kts | 147° |
| 2026-05-06 19:01 | 51.23943 | 6.73319 | 10012 ft | 337 kts | 147° |
| 2026-05-06 19:01 | 51.21962 | 6.75199 | 9895 ft | 325 kts | 147° |
| 2026-05-06 19:02 | 51.20068 | 6.76990 | 9906 ft | 309 kts | 147° |
| 2026-05-06 19:02 | 51.18241 | 6.78717 | 9905 ft | 304 kts | 147° |
| 2026-05-06 19:02 | 51.16422 | 6.80437 | 9924 ft | 303 kts | 147° |
| 2026-05-06 19:02 | 51.14607 | 6.82155 | 9924 ft | 303 kts | 147° |
| 2026-05-06 19:03 | 51.12795 | 6.83870 | 9910 ft | 303 kts | 146° |
| 2026-05-06 19:03 | 51.10986 | 6.85580 | 9907 ft | 303 kts | 146° |
| 2026-05-06 19:03 | 51.09211 | 6.87370 | 9913 ft | 300 kts | 136° |
| 2026-05-06 19:03 | 51.07813 | 6.89781 | 9911 ft | 296 kts | 124° |
| 2026-05-06 19:04 | 51.06552 | 6.92367 | 9913 ft | 296 kts | 123° |
| 2026-05-06 19:04 | 51.05306 | 6.94968 | 9901 ft | 296 kts | 123° |
| 2026-05-06 19:04 | 51.04070 | 6.97577 | 9885 ft | 295 kts | 120° |
| 2026-05-06 19:04 | 51.03211 | 7.00474 | 9902 ft | 289 kts | 105° |
| 2026-05-06 19:05 | 51.02581 | 7.03512 | 9898 ft | 289 kts | 103° |
| 2026-05-06 19:05 | 51.01976 | 7.06553 | 9889 ft | 289 kts | 103° |
| 2026-05-06 19:05 | 51.01373 | 7.09600 | 9893 ft | 289 kts | 103° |
| 2026-05-06 19:05 | 51.00773 | 7.12668 | 9841 ft | 293 kts | 103° |
| 2026-05-06 19:06 | 51.00171 | 7.15804 | 9305 ft | 299 kts | 103° |
| 2026-05-06 19:06 | 50.99572 | 7.18983 | 8774 ft | 303 kts | 103° |
| 2026-05-06 19:06 | 50.98978 | 7.22203 | 8251 ft | 306 kts | 103° |
| 2026-05-06 19:06 | 50.98390 | 7.25470 | 7739 ft | 309 kts | 103° |
| 2026-05-06 19:07 | 50.97849 | 7.28770 | 7228 ft | 310 kts | 96° |
| 2026-05-06 19:07 | 50.97816 | 7.32181 | 6733 ft | 309 kts | 85° |
| 2026-05-06 19:07 | 50.97982 | 7.35594 | 6234 ft | 311 kts | 83° |
| 2026-05-06 19:07 | 50.98158 | 7.38969 | 5862 ft | 299 kts | 84° |
| 2026-05-06 19:08 | 50.98475 | 7.42139 | 5472 ft | 283 kts | 69° |
| 2026-05-06 19:08 | 50.99182 | 7.44923 | 5091 ft | 269 kts | 64° |
| 2026-05-06 19:08 | 50.99924 | 7.47621 | 4704 ft | 259 kts | 66° |
| 2026-05-06 19:08 | 51.00291 | 7.50325 | 4308 ft | 253 kts | 90° |
| 2026-05-06 19:09 | 50.99831 | 7.52975 | 3836 ft | 252 kts | 120° |
| 2026-05-06 19:09 | 50.98599 | 7.54894 | 3343 ft | 249 kts | 152° |
| 2026-05-06 19:09 | 50.96956 | 7.55507 | 3011 ft | 238 kts | 186° |
| 2026-05-06 19:09 | 50.95471 | 7.54649 | 2988 ft | 228 kts | 221° |
| 2026-05-06 19:10 | 50.94554 | 7.52689 | 2989 ft | 221 kts | 257° |
| 2026-05-06 19:10 | 50.94507 | 7.50325 | 2995 ft | 216 kts | 280° |
| 2026-05-06 19:10 | 50.94647 | 7.47943 | 2999 ft | 217 kts | 278° |
| 2026-05-06 19:10 | 50.94770 | 7.45560 | 3000 ft | 217 kts | 278° |
| 2026-05-06 19:11 | 50.94852 | 7.43168 | 3000 ft | 217 kts | 268° |
| 2026-05-06 19:11 | 50.94527 | 7.40892 | 2992 ft | 207 kts | 252° |
| 2026-05-06 19:11 | 50.93959 | 7.38835 | 3159 ft | 201 kts | 245° |
| 2026-05-06 19:11 | 50.93266 | 7.36962 | 3835 ft | 193 kts | 238° |
| 2026-05-06 19:12 | 50.92610 | 7.35439 | 5019 ft | 149 kts | 240° |
| 2026-05-06 19:12 | 50.92060 | 7.34016 | 5205 ft | 171 kts | 244° |
| 2026-05-06 19:12 | 50.91438 | 7.32226 | 4775 ft | 190 kts | 244° |
| 2026-05-06 19:12 | 50.90738 | 7.30451 | 4772 ft | 195 kts | 233° |
| 2026-05-06 19:13 | 50.89680 | 7.29104 | 4756 ft | 200 kts | 199° |
| 2026-05-06 19:13 | 50.88308 | 7.29078 | 4763 ft | 202 kts | 159° |
| 2026-05-06 19:13 | 50.87216 | 7.30405 | 4826 ft | 199 kts | 118° |
| 2026-05-06 19:13 | 50.86843 | 7.32477 | 4976 ft | 199 kts | 90° |
| 2026-05-06 19:14 | 50.86852 | 7.34646 | 5000 ft | 196 kts | 84° |
| 2026-05-06 19:14 | 50.86928 | 7.36814 | 4946 ft | 200 kts | 84° |
| 2026-05-06 19:14 | 50.87017 | 7.39044 | 4554 ft | 206 kts | 83° |
| 2026-05-06 19:14 | 50.87147 | 7.41316 | 4160 ft | 208 kts | 73° |
| 2026-05-06 19:15 | 50.87603 | 7.43466 | 3757 ft | 205 kts | 65° |
| 2026-05-06 19:15 | 50.88149 | 7.45519 | 3383 ft | 200 kts | 64° |
| 2026-05-06 19:15 | 50.88792 | 7.47427 | 3026 ft | 191 kts | 43° |
| 2026-05-06 19:15 | 50.89894 | 7.48329 | 3001 ft | 178 kts | 2° |
| 2026-05-06 19:16 | 50.91097 | 7.47948 | 3005 ft | 178 kts | 338° |
| 2026-05-06 19:16 | 50.92221 | 7.47118 | 3002 ft | 178 kts | 334° |
| 2026-05-06 19:16 | 50.93304 | 7.46185 | 2999 ft | 178 kts | 325° |
| 2026-05-06 19:16 | 50.94005 | 7.44616 | 2998 ft | 178 kts | 286° |
| 2026-05-06 19:17 | 50.94157 | 7.42703 | 2992 ft | 172 kts | 276° |
| 2026-05-06 19:17 | 50.94182 | 7.40857 | 3033 ft | 168 kts | 274° |
| 2026-05-06 19:17 | 50.94043 | 7.39020 | 3020 ft | 171 kts | 249° |
| 2026-05-06 19:17 | 50.93521 | 7.37310 | 3006 ft | 173 kts | 248° |
| 2026-05-06 19:18 | 50.93009 | 7.35590 | 2988 ft | 172 kts | 248° |
| 2026-05-06 19:18 | 50.92497 | 7.33878 | 2839 ft | 172 kts | 248° |
| 2026-05-06 19:18 | 50.91986 | 7.32177 | 2624 ft | 170 kts | 248° |
| 2026-05-06 19:18 | 50.91477 | 7.30484 | 2409 ft | 170 kts | 248° |
| 2026-05-06 19:19 | 50.90969 | 7.28795 | 2182 ft | 169 kts | 248° |
| 2026-05-06 19:19 | 50.90468 | 7.27131 | 1949 ft | 164 kts | 248° |
| 2026-05-06 19:19 | 50.89994 | 7.25563 | 1756 ft | 153 kts | 248° |
| 2026-05-06 19:19 | 50.89548 | 7.24082 | 1532 ft | 146 kts | 248° |
| 2026-05-06 19:20 | 50.89111 | 7.22638 | 1319 ft | 144 kts | 248° |
| 2026-05-06 19:20 | 50.88683 | 7.21215 | 1087 ft | 142 kts | 247° |
| 2026-05-06 19:20 | 50.88264 | 7.19810 | 842 ft | 142 kts | 248° |
| 2026-05-06 19:20 | 50.87835 | 7.18413 | 722 ft | 140 kts | 248° |
| 2026-05-06 19:21 | 50.87417 | 7.17016 | 522 ft | 140 kts | 246° |
| 2026-05-06 19:21 | 50.86996 | 7.15630 | 332 ft | 139 kts | 247° |
| 2026-05-06 19:21 | 50.86611 | 7.14350 | 257 ft | 98 kts | 244° |
| 2026-05-06 19:21 | 50.86425 | 7.13740 | 250 ft | 46 kts | 244° |
| 2026-05-06 19:22 | 50.86411 | 7.13413 | 249 ft | 30 kts | 315° |
| 2026-05-06 19:22 | 50.86439 | 7.13376 | 247 ft | 0 kts | 315° |
| 2026-05-06 19:23 | 50.86473 | 7.13323 | 244 ft | 14 kts | 316° |
| 2026-05-06 19:24 | 50.86561 | 7.13197 | 238 ft | 20 kts | 319° |
| 2026-05-06 19:24 | 50.86669 | 7.13041 | 238 ft | 22 kts | 317° |
| 2026-05-06 19:24 | 50.86789 | 7.12867 | 237 ft | 25 kts | 317° |
| 2026-05-06 19:24 | 50.86919 | 7.12677 | 235 ft | 26 kts | 317° |
| 2026-05-06 19:25 | 50.87032 | 7.12515 | 237 ft | 19 kts | 317° |
| 2026-05-06 19:25 | 50.87141 | 7.12360 | 236 ft | 21 kts | 318° |
| 2026-05-06 19:25 | 50.87283 | 7.12301 | 230 ft | 25 kts | 19° |
| 2026-05-06 19:25 | 50.87430 | 7.12381 | 230 ft | 20 kts | 19° |
| 2026-05-06 19:26 | 50.87563 | 7.12444 | 232 ft | 19 kts | 17° |
| 2026-05-06 19:26 | 50.87626 | 7.12465 | 230 ft | 4 kts | 314° |
| 2026-05-06 19:26 | 50.87636 | 7.12410 | 230 ft | 7 kts | 289° |
| 2026-05-06 19:26 | 50.87646 | 7.12365 | 231 ft | 1 kts | 287° |
| 2026-05-06 19:27 | 50.87647 | 7.12357 | 232 ft | 0 kts | 288° |